Time;durP1;ratioP1;P1;durP2;ratioP2;P2;SDS_P1;SDS_P2;PMS_P1;PMS_P2;Temp;Humidity;BMP_temperature;BMP_pressure;BME280_temperature;BME280_humidity;BME280_pressure;Samples;Min_cycle;Max_cycle;Signal;HPM_P1;HPM_P2
2022/10/11 00:00:54;;;;;;;0.45;0.45;;;;;;;;;;5009346;28;20045;-84
2022/10/11 00:03:20;;;;;;;0.20;0.10;;;;;;;;;;5025875;28;20033;-85
2022/10/11 00:05:47;;;;;;;0.20;0.10;;;;;;;;;;5016225;28;20046;-87
2022/10/11 00:08:13;;;;;;;0.20;0.05;;;;;;;;;;5033011;28;20128;-86
2022/10/11 00:10:39;;;;;;;0.20;0.10;;;;;;;;;;5019125;28;20040;-85
2022/10/11 00:13:05;;;;;;;0.20;0.10;;;;;;;;;;5017611;28;20053;-87
2022/10/11 00:15:32;;;;;;;0.20;0.10;;;;;;;;;;5033722;28;20048;-86
2022/10/11 00:17:58;;;;;;;0.30;0.30;;;;;;;;;;5020632;28;20079;-86
2022/10/11 00:20:26;;;;;;;0.30;0.30;;;;;;;;;;5029858;28;20052;-88
2022/10/11 00:22:52;;;;;;;0.20;0.10;;;;;;;;;;5023058;28;20448;-87
2022/10/11 00:25:18;;;;;;;0.20;0.10;;;;;;;;;;5018605;28;20048;-86
2022/10/11 00:27:45;;;;;;;0.20;0.10;;;;;;;;;;5021574;28;20032;-88
2022/10/11 00:30:11;;;;;;;0.20;0.10;;;;;;;;;;5021763;28;20048;-85
2022/10/11 00:32:38;;;;;;;0.20;0.10;;;;;;;;;;5040860;28;21936;-88
2022/10/11 00:35:05;;;;;;;0.20;0.10;;;;;;;;;;5029800;28;20676;-87
2022/10/11 00:37:35;;;;;;;0.20;0.10;;;;;;;;;;5028896;28;20045;-87
2022/10/11 00:40:02;;;;;;;0.20;0.10;;;;;;;;;;5017606;28;20087;-87
2022/10/11 00:42:28;;;;;;;0.20;0.10;;;;;;;;;;5005598;28;20037;-87
2022/10/11 00:45:14;;;;;;;0.25;0.20;;;;;;;;;;5019820;28;21357;-85
2022/10/11 00:47:40;;;;;;;0.20;0.10;;;;;;;;;;5024317;28;20075;-86
2022/10/11 00:50:09;;;;;;;0.20;0.10;;;;;;;;;;5017912;28;20045;-87
2022/10/11 00:52:41;;;;;;;0.20;0.10;;;;;;;;;;5019954;28;20123;-88
2022/10/11 00:55:11;;;;;;;0.20;0.10;;;;;;;;;;5027721;28;20040;-88
2022/10/11 00:57:39;;;;;;;0.20;0.10;;;;;;;;;;5020171;28;20045;-85
2022/10/11 01:00:07;;;;;;;0.20;0.10;;;;;;;;;;5018811;28;20079;-86
2022/10/11 01:02:33;;;;;;;0.20;0.10;;;;;;;;;;5006801;28;20041;-87
2022/10/11 01:04:59;;;;;;;0.57;0.15;;;;;;;;;;5019589;28;20132;-87
2022/10/11 01:07:29;;;;;;;0.20;0.10;;;;;;;;;;5015768;28;20052;-85
2022/10/11 01:09:56;;;;;;;0.20;0.10;;;;;;;;;;5012561;28;20094;-87
2022/10/11 01:12:23;;;;;;;0.20;0.10;;;;;;;;;;5010652;28;20045;-88
2022/10/11 01:15:05;;;;;;;0.20;0.10;;;;;;;;;;5026286;28;20045;-86
2022/10/11 01:17:46;;;;;;;1.35;0.50;;;;;;;;;;5016898;28;20040;-86
2022/10/11 01:20:31;;;;;;;0.20;0.10;;;;;;;;;;5033353;28;20041;-87
2022/10/11 01:23:04;;;;;;;0.45;0.45;;;;;;;;;;5026713;28;20044;-85
2022/10/11 01:25:31;;;;;;;0.20;0.10;;;;;;;;;;5025969;28;20111;-86
2022/10/11 01:28:03;;;;;;;0.20;0.20;;;;;;;;;;5039932;28;20036;-87
2022/10/11 01:30:31;;;;;;;0.20;0.10;;;;;;;;;;5035797;28;20037;-85
2022/10/11 01:33:13;;;;;;;0.20;0.10;;;;;;;;;;5018186;28;20071;-87
2022/10/11 01:35:48;;;;;;;0.20;0.10;;;;;;;;;;5027790;28;20040;-87
2022/10/11 01:38:23;;;;;;;0.20;0.10;;;;;;;;;;5026585;28;20024;-84
2022/10/11 01:40:55;;;;;;;0.20;0.10;;;;;;;;;;5021354;28;22125;-85
2022/10/11 01:43:22;;;;;;;0.20;0.10;;;;;;;;;;5026855;28;20055;-85
2022/10/11 01:45:52;;;;;;;0.20;0.10;;;;;;;;;;5020237;28;20063;-85
2022/10/11 01:48:18;;;;;;;0.20;0.10;;;;;;;;;;5039451;28;20120;-85
2022/10/11 01:50:52;;;;;;;0.20;0.10;;;;;;;;;;5027522;28;20041;-86
2022/10/11 01:53:18;;;;;;;0.20;0.10;;;;;;;;;;5035356;28;20049;-85
2022/10/11 01:55:50;;;;;;;5.32;1.23;;;;;;;;;;5040386;28;20053;-84
2022/10/11 01:58:25;;;;;;;0.20;0.10;;;;;;;;;;5021198;28;20697;-85
2022/10/11 02:00:55;;;;;;;0.20;0.10;;;;;;;;;;5019240;28;20383;-85
2022/10/11 02:03:39;;;;;;;0.20;0.10;;;;;;;;;;5024234;28;20124;-84
2022/10/11 02:06:12;;;;;;;0.20;0.10;;;;;;;;;;5038855;28;21893;-85
2022/10/11 02:08:42;;;;;;;0.20;0.10;;;;;;;;;;5037213;28;20044;-85
2022/10/11 02:11:08;;;;;;;0.20;0.10;;;;;;;;;;5020968;28;20059;-85
2022/10/11 02:13:34;;;;;;;0.30;0.30;;;;;;;;;;5021637;28;21765;-84
2022/10/11 02:16:01;;;;;;;0.20;0.10;;;;;;;;;;5023642;28;20044;-85
2022/10/11 02:18:31;;;;;;;0.20;0.10;;;;;;;;;;5026987;28;20128;-87
2022/10/11 02:20:59;;;;;;;0.20;0.10;;;;;;;;;;5029826;28;20049;-88
2022/10/11 02:23:28;;;;;;;0.20;0.10;;;;;;;;;;5030598;28;20041;-88
2022/10/11 02:25:55;;;;;;;0.20;0.10;;;;;;;;;;5024751;28;20076;-86
2022/10/11 02:28:24;;;;;;;0.20;0.10;;;;;;;;;;5039778;28;20490;-88
2022/10/11 02:30:51;;;;;;;0.20;0.05;;;;;;;;;;5015283;28;20073;-85
2022/10/11 02:33:20;;;;;;;0.20;0.10;;;;;;;;;;5028112;28;20084;-88
2022/10/11 02:35:49;;;;;;;0.20;0.10;;;;;;;;;;5022547;28;20091;-88
2022/10/11 02:38:25;;;;;;;0.20;0.10;;;;;;;;;;5043837;28;20114;-87
2022/10/11 02:40:57;;;;;;;0.20;0.10;;;;;;;;;;5024142;28;20040;-87
2022/10/11 02:43:34;;;;;;;1.70;0.30;;;;;;;;;;5026361;28;20040;-88
2022/10/11 02:46:01;;;;;;;0.20;0.10;;;;;;;;;;5023813;28;20140;-87
2022/10/11 02:48:28;;;;;;;0.20;0.10;;;;;;;;;;5022567;28;20171;-85
2022/10/11 02:50:55;;;;;;;0.20;0.10;;;;;;;;;;5021380;28;20040;-87
2022/10/11 02:53:22;;;;;;;0.20;0.10;;;;;;;;;;5024955;28;20900;-87
2022/10/11 02:55:49;;;;;;;0.20;0.10;;;;;;;;;;5005681;28;20060;-87
2022/10/11 02:58:15;;;;;;;0.20;0.10;;;;;;;;;;5015005;28;20067;-88
2022/10/11 03:00:41;;;;;;;0.20;0.10;;;;;;;;;;5025688;28;20538;-86
2022/10/11 03:03:07;;;;;;;0.43;0.40;;;;;;;;;;5027948;28;20499;-88
2022/10/11 03:05:39;;;;;;;0.20;0.10;;;;;;;;;;5010710;28;20048;-86
2022/10/11 03:08:06;;;;;;;0.20;0.10;;;;;;;;;;5012777;28;20075;-86
2022/10/11 03:10:33;;;;;;;0.20;0.10;;;;;;;;;;5039662;28;20045;-87
2022/10/11 03:12:59;;;;;;;0.20;0.10;;;;;;;;;;5029526;28;20102;-87
2022/10/11 03:15:25;;;;;;;0.20;0.10;;;;;;;;;;5023153;28;20049;-88
2022/10/11 03:17:51;;;;;;;0.20;0.10;;;;;;;;;;5023664;28;20040;-87
2022/10/11 03:20:27;;;;;;;0.20;0.10;;;;;;;;;;5024463;22;20348;-83
2022/10/11 03:23:19;;;;;;;0.20;0.10;;;;;;;;;;5005512;28;20366;-85
2022/10/11 03:25:56;;;;;;;0.20;0.10;;;;;;;;;;5014827;28;20053;-84
2022/10/11 03:28:39;;;;;;;0.20;0.10;;;;;;;;;;4995822;28;20282;-85
2022/10/11 03:31:05;;;;;;;0.20;0.10;;;;;;;;;;4993258;28;20559;-84
2022/10/11 03:33:44;;;;;;;0.20;0.10;;;;;;;;;;5021169;28;20466;-85
2022/10/11 03:36:13;;;;;;;0.20;0.10;;;;;;;;;;5017404;28;21138;-85
2022/10/11 03:39:07;;;;;;;0.20;0.10;;;;;;;;;;5008760;28;20033;-84
2022/10/11 03:41:50;;;;;;;0.20;0.10;;;;;;;;;;5019616;28;20091;-84
2022/10/11 03:47:35;;;;;;;0.20;0.10;;;;;;;;;;5019262;28;20107;-85
2022/10/11 03:50:08;;;;;;;0.20;0.10;;;;;;;;;;5016712;28;20087;-83
2022/10/11 03:53:07;;;;;;;;;;;;;;;;;;;;;
2022/10/11 03:58:32;;;;;;;0.20;0.10;;;;;;;;;;4990858;28;20150;-84
2022/10/11 04:00:58;;;;;;;0.20;0.10;;;;;;;;;;5011364;28;20590;-84
2022/10/11 04:03:24;;;;;;;0.20;0.10;;;;;;;;;;5001750;28;20111;-85
2022/10/11 04:06:20;;;;;;;0.20;0.10;;;;;;;;;;5005696;28;20041;-85
2022/10/11 04:09:02;;;;;;;0.20;0.10;;;;;;;;;;5013794;28;20057;-85
2022/10/11 04:11:46;;;;;;;0.20;0.10;;;;;;;;;;4987849;28;20033;-85
2022/10/11 04:14:26;;;;;;;0.20;0.10;;;;;;;;;;5007332;28;20052;-85
2022/10/11 04:17:06;;;;;;;0.20;0.10;;;;;;;;;;5005606;28;20100;-84
2022/10/11 04:19:51;;;;;;;0.20;0.10;;;;;;;;;;5003257;28;20419;-85
2022/10/11 04:22:25;;;;;;;0.20;0.10;;;;;;;;;;5014095;28;20038;-85
2022/10/11 04:25:12;;;;;;;0.20;0.10;;;;;;;;;;5021047;28;20062;-82
2022/10/11 04:27:38;;;;;;;0.20;0.10;;;;;;;;;;5021929;28;20041;-84
2022/10/11 04:30:13;;;;;;;0.20;0.10;;;;;;;;;;5025930;28;20037;-84
2022/10/11 04:35:29;;;;;;;0.20;0.10;;;;;;;;;;5013006;28;20052;-86
2022/10/11 04:37:55;;;;;;;0.20;0.10;;;;;;;;;;5019139;28;20048;-83
2022/10/11 04:40:21;;;;;;;0.20;0.10;;;;;;;;;;4986937;28;20041;-83
2022/10/11 04:43:11;;;;;;;0.20;0.10;;;;;;;;;;5000180;28;20045;-85
2022/10/11 04:48:55;;;;;;;0.20;0.10;;;;;;;;;;5025544;28;20128;-84
2022/10/11 04:51:29;;;;;;;0.20;0.10;;;;;;;;;;5005279;28;20759;-84
2022/10/11 04:54:14;;;;;;;0.20;0.10;;;;;;;;;;5011892;28;20215;-84
2022/10/11 04:56:49;;;;;;;0.20;0.10;;;;;;;;;;5012856;28;20514;-84
2022/10/11 04:59:25;;;;;;;0.20;0.10;;;;;;;;;;5009126;28;20057;-84
2022/10/11 05:18:16;;;;;;;0.20;0.10;;;;;;;;;;4989974;28;20213;-86
2022/10/11 05:46:35;;;;;;;0.20;0.10;;;;;;;;;;5046175;28;21338;-84
2022/10/11 05:49:26;;;;;;;0.20;0.10;;;;;;;;;;5031205;28;20055;-85
2022/10/11 05:55:04;;;;;;;0.20;0.10;;;;;;;;;;5031499;28;20049;-85
2022/10/11 05:57:51;;;;;;;0.20;0.10;;;;;;;;;;5049527;28;20052;-85
2022/10/11 06:00:28;;;;;;;0.20;0.10;;;;;;;;;;5028748;28;20049;-84
2022/10/11 06:03:31;;;;;;;;;;;;;;;;;;;;;
2022/10/11 06:06:06;;;;;;;0.20;0.10;;;;;;;;;;5044868;28;20040;-85
2022/10/11 06:08:41;;;;;;;0.20;0.10;;;;;;;;;;5032486;28;22593;-85
2022/10/11 06:11:25;;;;;;;0.20;0.10;;;;;;;;;;5047258;28;20506;-84
2022/10/11 06:14:07;;;;;;;;;;;;;;;;;;;;;
2022/10/11 06:16:48;;;;;;;0.20;0.10;;;;;;;;;;5037538;28;20032;-84
2022/10/11 06:19:46;;;;;;;0.20;0.10;;;;;;;;;;5042124;28;20648;-84
2022/10/11 06:22:12;;;;;;;0.20;0.10;;;;;;;;;;5036063;28;20047;-83
2022/10/11 06:52:57;;;;;;;0.20;0.10;;;;;;;;;;4928893;28;20635;-84
2022/10/11 07:03:02;;;;;;;;;;;;;;;;;;;;;
2022/10/11 07:06:51;;;;;;;0.20;0.10;;;;;;;;;;4933851;28;20062;-85
2022/10/11 07:16:56;;;;;;;0.20;0.10;;;;;;;;;;4940239;28;20058;-84
2022/10/11 07:50:28;;;;;;;;;;;;;;;;;;;;;
2022/10/11 07:57:15;;;;;;;0.20;0.10;;;;;;;;;;4970127;28;20050;-85
2022/10/11 08:09:41;;;;;;;0.20;0.10;;;;;;;;;;4948107;28;20054;-83
2022/10/11 08:12:40;;;;;;;0.20;0.10;;;;;;;;;;4938076;28;20094;-83
2022/10/11 08:18:47;;;;;;;;;;;;;;;;;;;;;
2022/10/11 08:28:14;;;;;;;;;;;;;;;;;;;;;
2022/10/11 08:30:59;;;;;;;0.20;0.10;;;;;;;;;;4945110;28;20066;-85
2022/10/11 08:33:26;;;;;;;0.20;0.10;;;;;;;;;;4953774;28;20072;-83
2022/10/11 08:35:53;;;;;;;0.20;0.10;;;;;;;;;;4971108;28;20137;-82
2022/10/11 08:38:43;;;;;;;0.20;0.10;;;;;;;;;;4998524;28;21037;-83
2022/10/11 08:41:27;;;;;;;0.20;0.10;;;;;;;;;;4995764;28;20085;-83
2022/10/11 08:44:08;;;;;;;0.73;0.40;;;;;;;;;;4984463;28;20099;-81
2022/10/11 08:46:46;;;;;;;0.20;0.10;;;;;;;;;;5001097;28;20133;-83
2022/10/11 08:49:15;;;;;;;0.20;0.10;;;;;;;;;;4985619;28;20054;-81
2022/10/11 08:51:51;;;;;;;0.20;0.10;;;;;;;;;;4999525;28;20034;-83
2022/10/11 08:54:47;;;;;;;0.20;0.10;;;;;;;;;;4999550;28;20030;-83
2022/10/11 08:57:37;;;;;;;0.20;0.08;;;;;;;;;;5013695;28;20033;-84
2022/10/11 09:00:07;;;;;;;0.20;0.10;;;;;;;;;;4999026;28;20515;-83
2022/10/11 09:02:45;;;;;;;0.20;0.10;;;;;;;;;;4999662;28;20042;-82
2022/10/11 09:05:17;;;;;;;0.20;0.10;;;;;;;;;;4981956;28;20113;-83
2022/10/11 09:07:43;;;;;;;;;;;;;;;;;;4983618;28;20045;-82
2022/10/11 09:10:13;;;;;;;0.20;0.10;;;;;;;;;;4980267;28;19921;-82
2022/10/11 09:12:48;;;;;;;0.20;0.10;;;;;;;;;;4983573;28;20034;-83
2022/10/11 09:15:32;;;;;;;0.20;0.10;;;;;;;;;;4991878;28;20030;-83
2022/10/11 09:18:08;;;;;;;0.20;0.10;;;;;;;;;;4975584;28;20077;-82
2022/10/11 09:23:12;;;;;;;0.20;0.10;;;;;;;;;;5031389;28;20638;-84
2022/10/11 09:25:43;;;;;;;0.20;0.10;;;;;;;;;;5007832;28;20033;-86
2022/10/11 09:28:29;;;;;;;0.20;0.10;;;;;;;;;;5012531;28;20045;-86
2022/10/11 09:30:55;;;;;;;0.20;0.10;;;;;;;;;;5019350;28;20050;-85
2022/10/11 09:33:39;;;;;;;0.20;0.10;;;;;;;;;;5020050;28;20536;-87
2022/10/11 09:36:24;;;;;;;0.20;0.10;;;;;;;;;;5013743;28;20037;-86
2022/10/11 09:38:50;;;;;;;0.75;0.75;;;;;;;;;;5027498;28;20727;-86
2022/10/11 09:41:22;;;;;;;0.20;0.10;;;;;;;;;;5017260;28;20045;-85
2022/10/11 09:43:55;;;;;;;0.20;0.10;;;;;;;;;;5020401;28;20568;-87
2022/10/11 09:46:27;;;;;;;0.20;0.10;;;;;;;;;;5003615;28;20110;-87
2022/10/11 09:48:55;;;;;;;0.20;0.10;;;;;;;;;;5022586;28;20049;-84
2022/10/11 09:51:21;;;;;;;0.20;0.10;;;;;;;;;;5034240;28;20392;-88
2022/10/11 09:53:55;;;;;;;0.20;0.10;;;;;;;;;;5039382;28;20124;-85
2022/10/11 09:56:22;;;;;;;0.20;0.10;;;;;;;;;;5038952;28;20029;-85
2022/10/11 09:58:54;;;;;;;0.20;0.10;;;;;;;;;;5020922;28;20045;-87
2022/10/11 10:01:25;;;;;;;0.20;0.10;;;;;;;;;;5076076;22;20057;-88
2022/10/11 10:04:11;;;;;;;0.20;0.10;;;;;;;;;;5036999;28;20494;-87
2022/10/11 10:06:38;;;;;;;0.20;0.10;;;;;;;;;;5002243;28;20037;-87
2022/10/11 10:09:21;;;;;;;0.28;0.20;;;;;;;;;;5002307;28;20113;-87
2022/10/11 10:11:47;;;;;;;0.20;0.10;;;;;;;;;;5004429;28;20041;-88
2022/10/11 10:14:20;;;;;;;1.65;0.20;;;;;;;;;;5010994;22;20020;-85
2022/10/11 10:16:47;;;;;;;0.20;0.10;;;;;;;;;;5034440;28;20049;-84
2022/10/11 10:19:20;;;;;;;0.20;0.10;;;;;;;;;;5020422;28;20041;-83
2022/10/11 10:21:50;;;;;;;0.20;0.10;;;;;;;;;;5034590;28;21246;-84
2022/10/11 10:24:34;;;;;;;0.20;0.10;;;;;;;;;;5033689;28;20037;-82
2022/10/11 10:27:19;;;;;;;0.20;0.10;;;;;;;;;;5034372;28;20526;-83
2022/10/11 10:30:00;;;;;;;0.20;0.10;;;;;;;;;;5032891;28;20126;-81
2022/10/11 10:32:40;;;;;;;0.20;0.10;;;;;;;;;;5041043;28;20040;-81
2022/10/11 10:35:12;;;;;;;0.20;0.10;;;;;;;;;;5035972;28;20045;-83
2022/10/11 10:37:43;;;;;;;0.20;0.10;;;;;;;;;;5028279;28;20063;-83
2022/10/11 10:40:24;;;;;;;0.20;0.10;;;;;;;;;;5030333;28;20034;-84
2022/10/11 10:42:50;;;;;;;0.20;0.10;;;;;;;;;;5032873;28;20052;-84
2022/10/11 10:45:26;;;;;;;0.20;0.10;;;;;;;;;;5037540;28;20037;-85
2022/10/11 10:48:01;;;;;;;0.20;0.10;;;;;;;;;;5033084;28;20116;-86
2022/10/11 10:50:46;;;;;;;0.20;0.10;;;;;;;;;;5030745;28;21019;-83
2022/10/11 10:53:20;;;;;;;0.20;0.10;;;;;;;;;;5032830;28;20068;-85
2022/10/11 10:55:49;;;;;;;0.20;0.10;;;;;;;;;;5029087;28;20045;-84
2022/10/11 10:58:25;;;;;;;0.20;0.10;;;;;;;;;;5035861;28;20127;-84
2022/10/11 11:01:04;;;;;;;0.20;0.10;;;;;;;;;;5028769;28;20422;-84
2022/10/11 11:03:43;;;;;;;0.20;0.10;;;;;;;;;;5039673;28;20070;-82
2022/10/11 11:06:19;;;;;;;9.82;0.52;;;;;;;;;;5036922;28;20064;-81
2022/10/11 11:08:54;;;;;;;0.20;0.10;;;;;;;;;;5029266;28;20049;-82
2022/10/11 11:11:32;;;;;;;1.60;0.73;;;;;;;;;;5044208;28;20045;-82
2022/10/11 11:14:17;;;;;;;0.20;0.10;;;;;;;;;;5030227;28;20048;-82
2022/10/11 11:17:01;;;;;;;0.20;0.10;;;;;;;;;;5037028;28;20511;-82
2022/10/11 11:19:36;;;;;;;0.20;0.10;;;;;;;;;;5039701;28;20025;-83
2022/10/11 11:22:05;;;;;;;0.20;0.10;;;;;;;;;;5045052;28;20090;-82
2022/10/11 11:24:50;;;;;;;0.20;0.10;;;;;;;;;;5029360;28;20079;-83
2022/10/11 11:27:29;;;;;;;0.20;0.10;;;;;;;;;;5030405;28;20123;-84
2022/10/11 11:30:00;;;;;;;0.20;0.10;;;;;;;;;;5033671;28;20594;-84
2022/10/11 11:32:45;;;;;;;0.20;0.10;;;;;;;;;;5037124;28;20048;-83
2022/10/11 11:35:29;;;;;;;0.20;0.10;;;;;;;;;;5038266;28;21134;-82
2022/10/11 11:38:00;;;;;;;0.20;0.10;;;;;;;;;;5031136;28;20044;-80
2022/10/11 11:40:34;;;;;;;0.20;0.10;;;;;;;;;;5030255;28;20040;-83
2022/10/11 11:43:10;;;;;;;0.20;0.10;;;;;;;;;;5046436;28;20041;-83
2022/10/11 11:45:57;;;;;;;0.20;0.10;;;;;;;;;;5034542;28;20056;-83
2022/10/11 11:48:24;;;;;;;0.20;0.10;;;;;;;;;;5030502;28;20056;-83
2022/10/11 11:51:11;;;;;;;0.20;0.10;;;;;;;;;;5027800;28;20044;-84
2022/10/11 11:53:44;;;;;;;0.20;0.10;;;;;;;;;;5036682;28;20060;-84
2022/10/11 11:56:16;;;;;;;0.20;0.10;;;;;;;;;;5039978;28;20510;-83
2022/10/11 11:58:49;;;;;;;0.20;0.10;;;;;;;;;;5023852;28;20101;-83
2022/10/11 12:01:34;;;;;;;0.20;0.10;;;;;;;;;;5023486;28;20537;-83
2022/10/11 12:04:12;;;;;;;0.20;0.10;;;;;;;;;;5033109;28;20037;-83
2022/10/11 12:06:38;;;;;;;0.20;0.10;;;;;;;;;;5028410;28;20110;-85
2022/10/11 12:09:05;;;;;;;0.52;0.50;;;;;;;;;;5029159;28;20442;-82
2022/10/11 12:11:37;;;;;;;0.20;0.10;;;;;;;;;;5036706;28;20044;-83
2022/10/11 12:14:17;;;;;;;0.20;0.10;;;;;;;;;;5029050;28;20118;-81
2022/10/11 12:17:09;;;;;;;0.20;0.10;;;;;;;;;;5044222;28;20127;-83
2022/10/11 12:19:37;;;;;;;0.20;0.10;;;;;;;;;;5023253;28;20044;-83
2022/10/11 12:22:23;;;;;;;0.40;0.20;;;;;;;;;;5050463;28;20290;-82
2022/10/11 12:24:59;;;;;;;0.20;0.10;;;;;;;;;;5049833;28;20508;-84
2022/10/11 12:27:37;;;;;;;0.20;0.10;;;;;;;;;;5031640;28;20035;-82
2022/10/11 12:30:05;;;;;;;0.20;0.10;;;;;;;;;;5034610;28;20049;-84
2022/10/11 12:32:57;;;;;;;0.20;0.10;;;;;;;;;;5026124;28;20097;-84
2022/10/11 12:35:30;;;;;;;0.20;0.10;;;;;;;;;;5030987;28;20608;-83
2022/10/11 12:37:56;;;;;;;;;;;;;;;;;;5029396;28;20049;-84
2022/10/11 12:40:46;;;;;;;0.20;0.10;;;;;;;;;;5027617;28;19931;-83
2022/10/11 12:43:14;;;;;;;0.20;0.10;;;;;;;;;;5033288;28;20041;-84
2022/10/11 12:45:46;;;;;;;0.20;0.10;;;;;;;;;;5030807;28;20041;-84
2022/10/11 12:48:22;;;;;;;3.63;0.85;;;;;;;;;;5027653;28;20047;-83
2022/10/11 12:51:10;;;;;;;0.20;0.10;;;;;;;;;;5028495;28;20052;-83
2022/10/11 12:53:53;;;;;;;0.20;0.10;;;;;;;;;;5045103;28;20049;-82
2022/10/11 12:56:25;;;;;;;0.20;0.10;;;;;;;;;;5033834;28;20036;-83
2022/10/11 12:59:00;;;;;;;0.20;0.10;;;;;;;;;;5047409;28;20052;-83
2022/10/11 13:01:28;;;;;;;0.20;0.10;;;;;;;;;;5027047;28;20037;-84
2022/10/11 13:03:59;;;;;;;0.20;0.10;;;;;;;;;;5043714;28;20041;-83
2022/10/11 13:06:28;;;;;;;0.20;0.10;;;;;;;;;;5045580;28;20095;-84
2022/10/11 13:08:56;;;;;;;0.20;0.10;;;;;;;;;;5043438;28;20376;-84
2022/10/11 13:11:24;;;;;;;0.20;0.10;;;;;;;;;;5050175;28;20125;-84
2022/10/11 13:13:55;;;;;;;0.20;0.10;;;;;;;;;;5032210;28;20048;-83
2022/10/11 13:16:29;;;;;;;0.20;0.10;;;;;;;;;;5044278;28;20075;-82
2022/10/11 13:18:58;;;;;;;0.20;0.10;;;;;;;;;;5048878;28;20048;-83
2022/10/11 13:21:34;;;;;;;0.20;0.10;;;;;;;;;;5030364;28;20048;-83
2022/10/11 13:24:03;;;;;;;0.20;0.10;;;;;;;;;;5031937;28;20123;-83
2022/10/11 13:26:33;;;;;;;0.20;0.10;;;;;;;;;;5039028;28;20087;-84
2022/10/11 13:29:02;;;;;;;0.20;0.10;;;;;;;;;;5038623;28;20044;-83
2022/10/11 13:31:28;;;;;;;0.20;0.10;;;;;;;;;;5017497;28;20044;-83
2022/10/11 13:33:56;;;;;;;0.20;0.10;;;;;;;;;;5017021;28;20131;-83
2022/10/11 13:36:30;;;;;;;0.20;0.10;;;;;;;;;;5034364;28;20116;-84
2022/10/11 13:39:08;;;;;;;0.20;0.10;;;;;;;;;;5015865;28;20043;-83
2022/10/11 13:41:34;;;;;;;0.20;0.10;;;;;;;;;;5029311;28;20718;-82
2022/10/11 13:44:04;;;;;;;0.20;0.10;;;;;;;;;;5031538;28;20046;-82
2022/10/11 13:46:33;;;;;;;0.20;0.10;;;;;;;;;;5032046;28;20641;-83
2022/10/11 13:49:00;;;;;;;0.20;0.10;;;;;;;;;;5031924;28;20039;-82
2022/10/11 13:51:26;;;;;;;0.20;0.10;;;;;;;;;;5046185;28;20064;-83
2022/10/11 13:54:30;;;;;;;0.20;0.10;;;;;;;;;;5029694;28;20153;-83
2022/10/11 13:56:59;;;;;;;0.20;0.10;;;;;;;;;;5025715;28;20124;-83
2022/10/11 13:59:28;;;;;;;0.20;0.10;;;;;;;;;;5032471;28;20036;-84
2022/10/11 14:02:00;;;;;;;0.20;0.10;;;;;;;;;;5029873;28;20430;-83
2022/10/11 14:04:26;;;;;;;0.20;0.10;;;;;;;;;;5041908;28;20071;-82
2022/10/11 14:06:57;;;;;;;0.20;0.10;;;;;;;;;;5028924;28;20078;-84
2022/10/11 14:09:26;;;;;;;0.20;0.10;;;;;;;;;;5047435;28;20045;-83
2022/10/11 14:12:15;;;;;;;0.20;0.10;;;;;;;;;;5034577;28;20045;-83
2022/10/11 14:14:42;;;;;;;0.20;0.10;;;;;;;;;;5034332;28;20033;-83
2022/10/11 14:17:14;;;;;;;0.20;0.10;;;;;;;;;;5033040;28;20041;-83
2022/10/11 14:19:44;;;;;;;0.20;0.10;;;;;;;;;;5038481;28;20047;-84
2022/10/11 14:22:19;;;;;;;0.20;0.10;;;;;;;;;;5029632;28;20105;-82
2022/10/11 14:24:48;;;;;;;0.20;0.10;;;;;;;;;;5050505;28;20494;-84
2022/10/11 14:27:18;;;;;;;0.20;0.10;;;;;;;;;;5031020;28;20123;-83
2022/10/11 14:29:44;;;;;;;0.20;0.10;;;;;;;;;;5029273;28;20040;-83
2022/10/11 14:32:15;;;;;;;0.20;0.10;;;;;;;;;;5017260;28;21212;-83
2022/10/11 14:34:42;;;;;;;0.20;0.10;;;;;;;;;;5021698;28;20131;-82
2022/10/11 14:37:15;;;;;;;0.20;0.10;;;;;;;;;;5027847;28;20076;-84
2022/10/11 14:39:41;;;;;;;0.20;0.10;;;;;;;;;;5036373;28;20041;-84
2022/10/11 14:42:11;;;;;;;0.20;0.10;;;;;;;;;;5034487;28;20056;-83
2022/10/11 14:44:37;;;;;;;0.20;0.10;;;;;;;;;;5030540;28;20051;-84
2022/10/11 14:47:05;;;;;;;0.20;0.10;;;;;;;;;;5047867;28;20109;-84
2022/10/11 14:49:33;;;;;;;0.20;0.10;;;;;;;;;;5028753;28;20041;-84
2022/10/11 14:51:59;;;;;;;0.20;0.10;;;;;;;;;;5029220;28;20041;-83
2022/10/11 14:54:30;;;;;;;0.20;0.10;;;;;;;;;;5043920;28;20083;-84
2022/10/11 14:56:57;;;;;;;0.20;0.10;;;;;;;;;;5032039;28;20687;-83
2022/10/11 14:59:25;;;;;;;0.20;0.10;;;;;;;;;;5029424;28;20029;-84
2022/10/11 15:01:52;;;;;;;0.20;0.10;;;;;;;;;;5022526;28;20102;-83
2022/10/11 15:04:23;;;;;;;0.20;0.10;;;;;;;;;;5030809;28;20083;-84
2022/10/11 15:06:49;;;;;;;0.20;0.10;;;;;;;;;;5032980;28;20507;-85
2022/10/11 15:09:16;;;;;;;0.20;0.10;;;;;;;;;;5044569;28;20070;-84
2022/10/11 15:11:42;;;;;;;0.20;0.10;;;;;;;;;;5026815;28;20048;-83
2022/10/11 15:14:08;;;;;;;0.20;0.10;;;;;;;;;;5031212;28;20659;-84
2022/10/11 15:16:39;;;;;;;0.20;0.10;;;;;;;;;;5016939;28;20048;-85
2022/10/11 15:19:05;;;;;;;0.20;0.10;;;;;;;;;;5027814;28;20032;-84
2022/10/11 15:21:32;;;;;;;0.20;0.10;;;;;;;;;;5026044;28;20041;-83
2022/10/11 15:23:58;;;;;;;0.20;0.10;;;;;;;;;;5041483;28;20116;-84
2022/10/11 15:26:25;;;;;;;0.20;0.10;;;;;;;;;;5009243;28;20118;-84
2022/10/11 15:28:53;;;;;;;0.20;0.10;;;;;;;;;;5038252;28;20078;-85
2022/10/11 15:31:39;;;;;;;0.20;0.10;;;;;;;;;;5029682;28;20045;-85
2022/10/11 15:34:09;;;;;;;0.20;0.10;;;;;;;;;;5020602;28;20037;-85
2022/10/11 15:36:36;;;;;;;0.20;0.10;;;;;;;;;;5035027;28;20052;-84
2022/10/11 15:39:07;;;;;;;0.20;0.10;;;;;;;;;;5022904;28;20035;-85
2022/10/11 15:41:34;;;;;;;0.20;0.10;;;;;;;;;;5026349;28;20045;-86
2022/10/11 15:44:12;;;;;;;0.20;0.10;;;;;;;;;;5010912;28;20039;-86
2022/10/11 15:46:40;;;;;;;0.20;0.10;;;;;;;;;;5025327;28;20098;-83
2022/10/11 15:49:10;;;;;;;0.20;0.10;;;;;;;;;;5029990;28;20036;-83
2022/10/11 15:51:37;;;;;;;0.20;0.10;;;;;;;;;;5028248;28;20040;-84
2022/10/11 15:54:03;;;;;;;0.20;0.10;;;;;;;;;;5046153;28;20045;-83
2022/10/11 15:56:30;;;;;;;0.20;0.10;;;;;;;;;;5006231;28;20063;-82
2022/10/11 15:58:56;;;;;;;0.20;0.10;;;;;;;;;;5023436;28;20041;-83
2022/10/11 16:01:22;;;;;;;0.20;0.10;;;;;;;;;;5009044;28;20032;-85
2022/10/11 16:03:49;;;;;;;0.20;0.10;;;;;;;;;;5021417;28;20119;-85
2022/10/11 16:06:16;;;;;;;0.20;0.10;;;;;;;;;;5027415;28;20099;-85
2022/10/11 16:08:46;;;;;;;0.20;0.10;;;;;;;;;;5026019;28;20049;-85
2022/10/11 16:11:12;;;;;;;0.20;0.10;;;;;;;;;;5042519;28;20131;-85
2022/10/11 16:13:38;;;;;;;0.20;0.10;;;;;;;;;;5024830;28;20491;-85
2022/10/11 16:16:05;;;;;;;0.20;0.10;;;;;;;;;;5046394;23;21338;-86
2022/10/11 16:18:32;;;;;;;0.20;0.10;;;;;;;;;;5005885;28;20041;-86
2022/10/11 16:20:58;;;;;;;0.20;0.10;;;;;;;;;;4996826;28;20047;-86
2022/10/11 16:23:27;;;;;;;0.20;0.10;;;;;;;;;;5013233;28;20065;-87
2022/10/11 16:26:00;;;;;;;0.20;0.10;;;;;;;;;;5001946;28;20052;-87
2022/10/11 16:28:30;;;;;;;0.20;0.10;;;;;;;;;;4994946;28;20041;-87
2022/10/11 16:31:04;;;;;;;0.20;0.10;;;;;;;;;;5011035;28;20495;-87
2022/10/11 16:33:31;;;;;;;0.20;0.10;;;;;;;;;;5010036;28;20136;-86
2022/10/11 16:36:30;;;;;;;0.20;0.10;;;;;;;;;;4993023;28;20045;-87
2022/10/11 16:38:43;;;;;;;0.20;0.10;;;;;;;;;;4997346;28;20054;-86
2022/10/11 16:41:09;;;;;;;0.20;0.10;;;;;;;;;;5010665;28;20128;-87
2022/10/11 16:43:35;;;;;;;0.20;0.10;;;;;;;;;;4994763;28;20050;-85
2022/10/11 16:46:01;;;;;;;0.20;0.10;;;;;;;;;;4978113;28;20041;-87
2022/10/11 16:48:27;;;;;;;0.20;0.10;;;;;;;;;;4996722;28;20041;-87
2022/10/11 16:50:53;;;;;;;0.20;0.10;;;;;;;;;;4994747;28;20141;-85
2022/10/11 16:53:20;;;;;;;0.20;0.10;;;;;;;;;;5000005;28;20048;-86
2022/10/11 16:55:46;;;;;;;0.20;0.10;;;;;;;;;;5013309;28;20095;-87
2022/10/11 16:58:12;;;;;;;0.20;0.10;;;;;;;;;;4998621;28;20067;-86
2022/10/11 17:00:41;;;;;;;0.20;0.10;;;;;;;;;;4996589;28;20064;-85
2022/10/11 17:03:07;;;;;;;0.20;0.10;;;;;;;;;;5010259;28;20052;-85
2022/10/11 17:05:35;;;;;;;0.20;0.10;;;;;;;;;;5017356;28;20071;-87
2022/10/11 17:08:01;;;;;;;0.20;0.10;;;;;;;;;;5012665;28;20041;-86
2022/10/11 17:10:43;;;;;;;0.20;0.10;;;;;;;;;;4980774;28;20049;-85
2022/10/11 17:13:09;;;;;;;0.20;0.10;;;;;;;;;;4997909;28;20808;-85
2022/10/11 17:15:36;;;;;;;0.20;0.10;;;;;;;;;;5012986;28;21555;-87
2022/10/11 17:18:02;;;;;;;0.20;0.10;;;;;;;;;;5015676;28;20044;-86
2022/10/11 17:20:28;;;;;;;0.20;0.05;;;;;;;;;;4980600;28;20037;-86
2022/10/11 17:22:54;;;;;;;0.20;0.10;;;;;;;;;;5015847;28;20045;-87
2022/10/11 17:25:20;;;;;;;0.20;0.10;;;;;;;;;;5015458;28;20052;-87
2022/10/11 17:27:46;;;;;;;0.40;0.30;;;;;;;;;;4995756;28;20776;-86
2022/10/11 17:30:13;;;;;;;0.20;0.10;;;;;;;;;;5013437;28;20057;-85
2022/10/11 17:32:39;;;;;;;0.20;0.10;;;;;;;;;;5016567;28;20324;-86
2022/10/11 17:35:06;;;;;;;0.20;0.10;;;;;;;;;;4998862;28;20049;-86
2022/10/11 17:37:33;;;;;;;0.20;0.10;;;;;;;;;;5031484;28;20044;-85
2022/10/11 17:39:59;;;;;;;0.20;0.10;;;;;;;;;;5015244;28;20045;-86
2022/10/11 17:42:25;;;;;;;0.20;0.10;;;;;;;;;;4998893;28;20549;-85
2022/10/11 17:44:51;;;;;;;0.20;0.10;;;;;;;;;;4984105;28;20642;-85
2022/10/11 17:47:17;;;;;;;0.20;0.10;;;;;;;;;;5007360;28;20785;-86
2022/10/11 17:49:43;;;;;;;0.20;0.10;;;;;;;;;;4977222;28;20778;-86
2022/10/11 17:52:09;;;;;;;0.20;0.10;;;;;;;;;;4982392;28;20049;-86
2022/10/11 17:54:36;;;;;;;0.20;0.10;;;;;;;;;;4999635;28;20503;-86
2022/10/11 17:57:02;;;;;;;0.20;0.10;;;;;;;;;;5015116;28;20041;-86
2022/10/11 17:59:30;;;;;;;0.52;0.40;;;;;;;;;;4997446;28;20503;-85
2022/10/11 18:01:56;;;;;;;0.20;0.10;;;;;;;;;;5014743;28;20503;-85